createdAt,value
2018-05-08T00:00:42.773Z,48.21
2018-05-08T00:01:42.748Z,47.63
2018-05-08T00:02:42.725Z,47.15
2018-05-08T00:03:42.712Z,46.96
2018-05-08T00:04:42.679Z,47.25
2018-05-08T00:05:42.675Z,47.05
2018-05-08T00:06:42.673Z,47.05
2018-05-08T00:07:42.603Z,46.58
2018-05-08T00:08:42.591Z,48.02
2018-05-08T00:09:42.556Z,48.69
2018-05-08T00:10:42.542Z,47.72
2018-05-08T00:11:42.518Z,48.59
2018-05-08T00:12:42.488Z,48.66
2018-05-08T00:13:42.466Z,47.53
2018-05-08T00:14:42.444Z,47.25
2018-05-08T00:15:42.415Z,48.40
2018-05-08T00:16:42.400Z,47.15
2018-05-08T00:17:42.374Z,46.26
2018-05-08T00:18:42.349Z,46.38
2018-05-08T00:19:42.326Z,46.67
2018-05-08T00:20:42.300Z,47.53
2018-05-08T00:21:42.284Z,46.28
2018-05-08T00:22:42.264Z,46.77
2018-05-08T00:23:42.231Z,47.99
2018-05-08T00:24:42.211Z,47.92
2018-05-08T00:25:42.192Z,49.26
2018-05-08T00:26:42.157Z,46.96
2018-05-08T00:27:42.146Z,46.19
2018-05-08T00:28:42.112Z,46.74
2018-05-08T00:29:42.096Z,46.36
2018-05-08T00:30:42.073Z,46.74
2018-05-08T00:31:42.044Z,49.33
2018-05-08T00:32:42.028Z,49.74
2018-05-08T00:33:41.999Z,48.02
2018-05-08T00:34:41.973Z,48.49
2018-05-08T00:35:41.956Z,47.89
2018-05-08T00:36:41.932Z,49.62
2018-05-08T00:37:41.906Z,48.85
2018-05-08T00:38:41.874Z,47.51
2018-05-08T00:39:41.864Z,47.44
2018-05-08T00:40:41.837Z,48.57
2018-05-08T00:41:41.805Z,48.85
2018-05-08T00:42:41.785Z,48.85
2018-05-08T00:43:41.761Z,49.65
2018-05-08T00:44:41.741Z,48.85
2018-05-08T00:45:41.713Z,48.95
2018-05-08T00:46:41.693Z,49.72
2018-05-08T00:47:41.670Z,50.39
2018-05-08T00:48:41.645Z,50.87
2018-05-08T00:49:41.622Z,50.99
2018-05-08T00:50:41.601Z,48.95
2018-05-08T00:51:41.573Z,48.95
2018-05-08T00:52:41.556Z,47.80
2018-05-08T00:53:41.528Z,49.82
2018-05-08T00:54:41.504Z,50.68
2018-05-08T00:55:41.478Z,50.29
2018-05-08T00:56:41.454Z,50.78
2018-05-08T00:57:41.434Z,49.72
2018-05-08T00:58:41.405Z,48.76
2018-05-08T00:59:41.387Z,49.24
2018-05-08T01:00:41.364Z,48.38
2018-05-08T01:01:41.336Z,48.28
2018-05-08T01:02:41.323Z,50.49
2018-05-08T01:03:41.290Z,48.66
2018-05-08T01:04:41.269Z,48.95
2018-05-08T01:05:41.261Z,50.10
2018-05-08T01:06:41.214Z,49.05
2018-05-08T01:07:41.200Z,48.18
2018-05-08T01:08:41.173Z,51.06
2018-05-08T01:09:41.147Z,48.85
2018-05-08T01:10:41.121Z,47.80
2018-05-08T01:11:41.188Z,49.05
2018-05-08T01:12:41.083Z,50.87
2018-05-08T01:13:41.056Z,48.95
2018-05-08T01:14:41.029Z,50.49
2018-05-08T01:15:41.013Z,50.49
2018-05-08T01:16:40.984Z,49.43
2018-05-08T01:17:40.959Z,50.39
2018-05-08T01:18:40.942Z,50.29
2018-05-08T01:19:40.918Z,50.87
2018-05-08T01:20:40.896Z,48.95
2018-05-08T01:21:40.871Z,49.15
2018-05-08T01:22:40.842Z,49.62
2018-05-08T01:23:40.821Z,49.91
2018-05-08T01:24:40.793Z,50.20
2018-05-08T01:25:40.766Z,52.31
2018-05-08T01:26:40.747Z,51.06
2018-05-08T01:27:40.728Z,50.39
2018-05-08T01:28:40.696Z,50.20
2018-05-08T01:29:40.682Z,50.29
2018-05-08T01:30:40.651Z,49.82
2018-05-08T01:31:40.633Z,49.72
2018-05-08T01:32:40.607Z,50.10
2018-05-08T01:33:40.583Z,50.87
2018-05-08T01:34:40.556Z,50.87
2018-05-08T01:35:40.534Z,50.39
2018-05-08T01:36:40.513Z,49.62
2018-05-08T01:37:40.483Z,50.39
2018-05-08T01:38:40.467Z,50.01
2018-05-08T01:39:40.444Z,48.95
2018-05-08T01:40:40.412Z,49.15
2018-05-08T01:41:40.391Z,49.41
2018-05-08T01:42:40.364Z,49.33
2018-05-08T01:43:40.345Z,49.52
2018-05-08T01:44:40.320Z,50.27
2018-05-08T01:45:40.299Z,50.29
2018-05-08T01:46:40.274Z,49.52
2018-05-08T01:47:40.253Z,49.91
2018-05-08T01:48:40.222Z,48.93
2018-05-08T01:49:40.201Z,49.31
2018-05-08T01:50:40.180Z,50.87
2018-05-08T01:51:40.153Z,50.87
2018-05-08T01:52:40.136Z,49.79
2018-05-08T01:53:40.110Z,49.02
2018-05-08T01:54:40.082Z,49.02
2018-05-08T01:55:40.063Z,50.56
2018-05-08T01:56:40.037Z,51.04
2018-05-08T01:57:40.009Z,50.94
2018-05-08T01:58:39.993Z,50.46
2018-05-08T01:59:39.963Z,50.46
2018-05-08T02:00:39.938Z,49.60
2018-05-08T02:01:39.917Z,50.27
2018-05-08T02:02:39.892Z,52.00
2018-05-08T02:03:39.871Z,51.61
2018-05-08T02:04:39.846Z,50.08
2018-05-08T02:05:39.831Z,49.50
2018-05-08T02:06:39.798Z,50.84
2018-05-08T02:07:39.775Z,51.14
2018-05-08T02:08:39.753Z,50.94
2018-05-08T02:09:39.727Z,50.94
2018-05-08T02:10:39.710Z,51.23
2018-05-08T02:11:39.686Z,50.75
2018-05-08T02:12:39.657Z,52.76
2018-05-08T02:13:39.631Z,52.28
2018-05-08T02:14:39.605Z,51.51
2018-05-08T02:15:39.588Z,51.20
2018-05-08T02:16:39.567Z,51.42
2018-05-08T02:17:39.534Z,52.76
2018-05-08T02:18:39.523Z,53.91
2018-05-08T02:19:39.490Z,54.11
2018-05-08T02:20:39.469Z,53.44
2018-05-08T02:21:39.447Z,52.00
2018-05-08T02:22:39.416Z,53.05
2018-05-08T02:23:39.401Z,53.34
2018-05-08T02:24:39.374Z,52.38
2018-05-08T02:25:39.345Z,52.76
2018-05-08T02:26:39.328Z,51.90
2018-05-08T02:27:39.307Z,51.81
2018-05-08T02:28:39.281Z,52.95
2018-05-08T02:29:39.251Z,54.58
2018-05-08T02:30:39.228Z,55.83
2018-05-08T02:31:39.206Z,54.97
2018-05-08T02:32:39.182Z,53.34
2018-05-08T02:33:39.155Z,53.34
2018-05-08T02:34:39.134Z,53.34
2018-05-08T02:35:39.108Z,52.19
2018-05-08T02:36:39.090Z,52.00
2018-05-08T02:37:39.064Z,51.59
2018-05-08T02:38:39.035Z,51.30
2018-05-08T02:39:39.019Z,52.07
2018-05-08T02:40:38.990Z,54.56
2018-05-08T02:41:38.966Z,52.93
2018-05-08T02:42:38.945Z,53.03
2018-05-08T02:43:38.921Z,53.41
2018-05-08T02:44:38.895Z,52.55
2018-05-08T02:45:38.874Z,54.46
2018-05-08T02:46:38.848Z,54.27
2018-05-08T02:47:38.820Z,54.75
2018-05-08T02:48:38.798Z,52.74
2018-05-08T02:49:38.776Z,52.74
2018-05-08T02:50:38.757Z,53.41
2018-05-08T02:51:38.727Z,55.80
2018-05-08T02:52:38.731Z,54.85
2018-05-08T02:53:38.685Z,54.75
2018-05-08T02:54:38.651Z,54.75
2018-05-08T02:55:38.636Z,55.62
2018-05-08T02:56:38.607Z,54.08
2018-05-08T02:57:38.582Z,55.52
2018-05-08T02:58:38.564Z,54.08
2018-05-08T02:59:38.536Z,53.31
2018-05-08T03:00:38.516Z,56.00
2018-05-08T03:01:38.482Z,54.94
2018-05-08T03:02:38.470Z,53.89
2018-05-08T03:03:38.441Z,53.03
2018-05-08T03:04:38.412Z,54.08
2018-05-08T03:05:38.396Z,55.52
2018-05-08T03:06:38.372Z,55.62
2018-05-08T03:07:38.383Z,54.53
2018-05-08T03:08:38.315Z,53.28
2018-05-08T03:09:38.296Z,54.15
2018-05-08T03:10:38.273Z,55.71
2018-05-08T03:11:38.246Z,54.63
2018-05-08T03:12:38.229Z,54.91
2018-05-08T03:13:38.202Z,53.86
2018-05-08T03:14:38.175Z,54.91
2018-05-08T03:15:38.156Z,54.05
2018-05-08T03:16:38.124Z,56.16
2018-05-08T03:17:38.110Z,55.11
2018-05-08T03:18:38.083Z,55.11
2018-05-08T03:19:38.060Z,55.30
2018-05-08T03:20:38.032Z,54.53
2018-05-08T03:21:38.012Z,55.58
2018-05-08T03:22:37.982Z,55.68
2018-05-08T03:23:37.960Z,55.11
2018-05-08T03:24:37.940Z,56.45
2018-05-08T03:25:37.909Z,57.89
2018-05-08T03:26:37.893Z,58.84
2018-05-08T03:27:37.876Z,57.50
2018-05-08T03:28:37.834Z,57.12
2018-05-08T03:29:37.822Z,56.83
2018-05-08T03:30:37.787Z,55.58
2018-05-08T03:31:37.765Z,55.40
2018-05-08T03:32:37.746Z,55.68
2018-05-08T03:33:37.725Z,57.89
2018-05-08T03:34:37.696Z,56.35
2018-05-08T03:35:37.669Z,55.87
2018-05-08T03:36:37.646Z,55.85
2018-05-08T03:37:37.623Z,55.65
2018-05-08T03:38:37.600Z,55.11
2018-05-08T03:39:37.581Z,55.68
2018-05-08T03:40:37.547Z,57.19
2018-05-08T03:41:37.532Z,55.18
2018-05-08T03:42:37.501Z,55.46
2018-05-08T03:43:37.473Z,55.46
2018-05-08T03:44:37.459Z,55.68
2018-05-08T03:45:37.423Z,55.65
2018-05-08T03:46:37.411Z,55.94
2018-05-08T03:47:37.386Z,55.58
2018-05-08T03:48:37.355Z,55.75
2018-05-08T03:49:37.337Z,55.27
2018-05-08T03:50:37.315Z,56.07
2018-05-08T03:51:37.285Z,56.99
2018-05-08T03:52:37.263Z,56.61
2018-05-08T03:53:37.235Z,55.78
2018-05-08T03:54:37.216Z,58.24
2018-05-08T03:55:37.190Z,58.72
2018-05-08T03:56:37.163Z,55.78
2018-05-08T03:57:37.137Z,55.87
2018-05-08T03:58:37.119Z,56.07
2018-05-08T03:59:37.089Z,55.56
2018-05-08T04:00:37.069Z,55.46
2018-05-08T04:01:37.048Z,55.58
2018-05-08T04:02:37.014Z,56.45
2018-05-08T04:03:37.007Z,56.35
2018-05-08T04:04:36.966Z,55.46
2018-05-08T04:05:36.948Z,57.50
2018-05-08T04:06:36.952Z,56.93
2018-05-08T04:07:36.894Z,56.90
2018-05-08T04:08:36.876Z,55.65
2018-05-08T04:09:36.850Z,56.90
2018-05-08T04:10:36.824Z,57.41
2018-05-08T04:11:36.806Z,57.28
2018-05-08T04:12:36.775Z,58.37
2018-05-08T04:13:36.757Z,56.64
2018-05-08T04:14:36.726Z,55.75
2018-05-08T04:15:36.705Z,57.48
2018-05-08T04:16:36.686Z,57.19
2018-05-08T04:17:36.655Z,58.05
2018-05-08T04:18:36.637Z,57.48
2018-05-08T04:19:36.613Z,58.24
2018-05-08T04:20:36.583Z,57.28
2018-05-08T04:21:36.561Z,56.71
2018-05-08T04:22:36.539Z,56.23
2018-05-08T04:23:36.516Z,57.19
2018-05-08T04:24:36.489Z,57.67
2018-05-08T04:25:36.467Z,57.67
2018-05-08T04:26:36.435Z,59.30
2018-05-08T04:27:36.415Z,59.77
2018-05-08T04:28:36.388Z,58.34
2018-05-08T04:29:36.368Z,55.75
2018-05-08T04:30:36.340Z,57.76
2018-05-08T04:31:36.314Z,58.27
2018-05-08T04:32:36.302Z,57.79
2018-05-08T04:33:36.272Z,58.91
2018-05-08T04:34:36.244Z,57.95
2018-05-08T04:35:36.219Z,59.52
2018-05-08T04:36:36.227Z,60.47
2018-05-08T04:37:36.178Z,57.98
2018-05-08T04:38:36.152Z,60.67
2018-05-08T04:39:36.121Z,59.42
2018-05-08T04:40:36.099Z,57.50
2018-05-08T04:41:36.079Z,60.00
2018-05-08T04:42:36.050Z,61.05
2018-05-08T04:43:36.024Z,59.71
2018-05-08T04:44:36.019Z,59.90
2018-05-08T04:45:35.980Z,57.70
2018-05-08T04:46:35.949Z,57.50
2018-05-08T04:47:35.931Z,59.80
2018-05-08T04:48:35.905Z,58.94
2018-05-08T04:49:35.897Z,60.67
2018-05-08T04:50:35.861Z,61.43
2018-05-08T04:51:35.836Z,60.76
2018-05-08T04:52:35.815Z,60.09
2018-05-08T04:53:35.789Z,62.49
2018-05-08T04:54:35.762Z,60.96
2018-05-08T04:55:35.734Z,61.53
2018-05-08T04:56:35.713Z,61.43
2018-05-08T04:57:35.685Z,63.92
2018-05-08T04:58:35.667Z,64.12
2018-05-08T04:59:35.637Z,63.45
2018-05-08T05:00:35.621Z,61.53
2018-05-08T05:01:35.591Z,60.09
2018-05-08T05:02:35.584Z,59.90
2018-05-08T05:03:35.546Z,59.33
2018-05-08T05:04:35.516Z,60.19
2018-05-08T05:05:35.492Z,61.63
2018-05-08T05:06:35.475Z,62.10
2018-05-08T05:07:35.449Z,60.28
2018-05-08T05:08:35.418Z,59.23
2018-05-08T05:09:35.396Z,59.80
2018-05-08T05:10:35.373Z,61.56
2018-05-08T05:11:35.344Z,61.08
2018-05-08T05:12:35.329Z,60.60
2018-05-08T05:13:35.303Z,58.30
2018-05-08T05:14:35.273Z,59.16
2018-05-08T05:15:35.250Z,59.26
2018-05-08T05:16:35.252Z,59.64
2018-05-08T05:17:35.206Z,59.26
2018-05-08T05:18:35.174Z,59.45
2018-05-08T05:19:35.157Z,59.16
2018-05-08T05:20:35.129Z,61.56
2018-05-08T05:21:35.101Z,60.70
2018-05-08T05:22:35.086Z,60.03
2018-05-08T05:23:35.055Z,60.41
2018-05-08T05:24:35.100Z,59.26
2018-05-08T05:25:35.007Z,59.48
2018-05-08T05:26:34.985Z,58.91
2018-05-08T05:27:34.961Z,59.96
2018-05-08T05:28:34.936Z,59.48
2018-05-08T05:29:34.914Z,59.58
2018-05-08T05:30:34.892Z,59.38
2018-05-08T05:31:34.901Z,57.37
2018-05-08T05:32:34.852Z,57.56
2018-05-08T05:33:34.819Z,57.37
2018-05-08T05:34:34.792Z,57.56
2018-05-08T05:35:34.774Z,58.04
2018-05-08T05:36:34.743Z,57.28
2018-05-08T05:37:34.720Z,58.62
2018-05-08T05:38:34.702Z,58.91
2018-05-08T05:39:34.674Z,57.75
2018-05-08T05:40:34.656Z,57.95
2018-05-08T05:41:34.626Z,57.95
2018-05-08T05:42:34.626Z,60.53
2018-05-08T05:43:34.573Z,60.44
2018-05-08T05:44:34.550Z,58.62
2018-05-08T05:45:34.525Z,59.51
2018-05-08T05:46:34.510Z,60.28
2018-05-08T05:47:34.487Z,58.26
2018-05-08T05:48:34.454Z,57.97
2018-05-08T05:49:34.438Z,57.97
2018-05-08T05:50:34.414Z,58.26
2018-05-08T05:51:34.419Z,57.88
2018-05-08T05:52:34.371Z,57.78
2018-05-08T05:53:34.334Z,57.11
2018-05-08T05:54:34.319Z,57.97
2018-05-08T05:55:34.289Z,59.41
2018-05-08T05:56:34.266Z,58.74
2018-05-08T05:57:34.237Z,56.73
2018-05-08T05:58:34.223Z,57.30
2018-05-08T05:59:34.198Z,58.45
2018-05-08T06:00:34.173Z,57.50
2018-05-08T06:01:34.151Z,55.29
2018-05-08T06:02:34.125Z,57.21
2018-05-08T06:03:34.099Z,56.66
2018-05-08T06:04:34.084Z,57.81
2018-05-08T06:05:34.056Z,56.53
2018-05-08T06:06:34.027Z,54.93
2018-05-08T06:07:34.008Z,56.95
2018-05-08T06:08:33.976Z,57.81
2018-05-08T06:09:33.954Z,57.90
2018-05-08T06:10:33.933Z,59.16
2018-05-08T06:11:33.909Z,59.54
2018-05-08T06:12:33.888Z,58.20
2018-05-08T06:13:33.859Z,59.83
2018-05-08T06:14:33.838Z,60.21
2018-05-08T06:15:33.809Z,60.88
2018-05-08T06:16:33.790Z,58.58
2018-05-08T06:17:33.772Z,56.66
2018-05-08T06:18:33.746Z,57.52
2018-05-08T06:19:33.722Z,55.22
2018-05-08T06:20:33.691Z,55.51
2018-05-08T06:21:33.718Z,57.23
2018-05-08T06:22:33.641Z,57.43
2018-05-08T06:23:33.625Z,56.30
2018-05-08T06:24:33.604Z,58.51
2018-05-08T06:25:33.574Z,58.22
2018-05-08T06:26:33.619Z,57.75
2018-05-08T06:27:33.532Z,59.09
2018-05-08T06:28:33.531Z,58.42
2018-05-08T06:29:33.476Z,56.21
2018-05-08T06:30:33.458Z,57.75
2018-05-08T06:31:33.440Z,56.11
2018-05-08T06:32:33.407Z,57.17
2018-05-08T06:33:33.392Z,57.45
2018-05-08T06:34:33.389Z,56.11
2018-05-08T06:35:33.342Z,57.20
2018-05-08T06:36:33.317Z,57.29
2018-05-08T06:37:33.289Z,56.43
2018-05-08T06:38:33.274Z,56.04
2018-05-08T06:39:33.314Z,54.02
2018-05-08T06:40:33.235Z,54.12
2018-05-08T06:41:33.208Z,54.50
2018-05-08T06:42:33.170Z,53.83
2018-05-08T06:43:33.158Z,53.25
2018-05-08T06:44:33.125Z,54.41
2018-05-08T06:45:33.104Z,55.46
2018-05-08T06:46:33.155Z,53.16
2018-05-08T06:47:33.054Z,53.92
2018-05-08T06:48:33.032Z,53.64
2018-05-08T06:49:33.016Z,53.06
2018-05-08T06:50:32.985Z,55.20
2018-05-08T06:51:32.970Z,55.78
2018-05-08T06:52:32.937Z,53.86
2018-05-08T06:53:32.914Z,55.40
2018-05-08T06:54:32.898Z,54.82
2018-05-08T06:55:32.867Z,53.66
2018-05-08T06:56:32.851Z,54.43
2018-05-08T06:57:32.823Z,54.72
2018-05-08T06:58:32.796Z,53.57
2018-05-08T06:59:32.778Z,52.80
2018-05-08T07:00:32.758Z,53.09
2018-05-08T07:01:32.725Z,52.99
2018-05-08T07:02:32.704Z,52.89
2018-05-08T07:03:32.687Z,53.86
2018-05-08T07:04:32.663Z,53.98
2018-05-08T07:05:32.640Z,54.91
2018-05-08T07:06:32.609Z,55.23
2018-05-08T07:07:32.593Z,54.94
2018-05-08T07:08:32.567Z,53.59
2018-05-08T07:09:32.539Z,53.02
2018-05-08T07:10:32.524Z,53.40
2018-05-08T07:11:32.495Z,51.29
2018-05-08T07:12:32.475Z,51.86
2018-05-08T07:13:32.455Z,52.54
2018-05-08T07:14:32.425Z,52.44
2018-05-08T07:15:32.409Z,51.38
2018-05-08T07:16:32.378Z,52.63
2018-05-08T07:17:32.357Z,52.92
2018-05-08T07:18:32.327Z,51.86
2018-05-08T07:19:32.307Z,51.12
2018-05-08T07:20:32.284Z,52.63
2018-05-08T07:21:32.264Z,52.44
2018-05-08T07:22:32.240Z,51.70
2018-05-08T07:23:32.234Z,51.21
2018-05-08T07:24:32.193Z,50.63
2018-05-08T07:25:32.166Z,50.45
2018-05-08T07:26:32.152Z,52.27
2018-05-08T07:27:32.124Z,51.79
2018-05-08T07:28:32.106Z,51.98
2018-05-08T07:29:32.081Z,50.83
2018-05-08T07:30:32.050Z,49.48
2018-05-08T07:31:32.034Z,49.29
2018-05-08T07:32:32.009Z,49.19
2018-05-08T07:33:31.992Z,50.63
2018-05-08T07:34:32.005Z,53.23
2018-05-08T07:35:31.944Z,52.18
2018-05-08T07:36:31.917Z,50.76
2018-05-08T07:37:31.895Z,52.78
2018-05-08T07:38:31.870Z,53.07
2018-05-08T07:39:31.847Z,50.57
2018-05-08T07:40:31.828Z,51.43
2018-05-08T07:41:31.806Z,51.34
2018-05-08T07:42:31.774Z,51.14
2018-05-08T07:43:31.758Z,51.05
2018-05-08T07:44:31.731Z,50.95
2018-05-08T07:45:31.721Z,51.82
2018-05-08T07:46:31.690Z,50.95
2018-05-08T07:47:31.664Z,49.73
2018-05-08T07:48:31.639Z,48.95
2018-05-08T07:49:31.619Z,48.66
2018-05-08T07:50:31.598Z,49.24
2018-05-08T07:51:31.575Z,47.51
2018-05-08T07:52:31.545Z,49.24
2018-05-08T07:53:31.534Z,49.15
2018-05-08T07:54:31.499Z,49.53
2018-05-08T07:55:31.482Z,49.82
2018-05-08T07:56:31.456Z,48.95
2018-05-08T07:57:31.513Z,49.05
2018-05-08T07:58:31.410Z,48.38
2018-05-08T07:59:31.388Z,49.24
2018-05-08T08:00:31.369Z,48.08
2018-05-08T08:01:31.343Z,47.03
2018-05-08T08:02:31.321Z,47.22
2018-05-08T08:03:31.296Z,48.28
2018-05-08T08:04:31.279Z,47.22
2018-05-08T08:05:31.250Z,47.89
2018-05-08T08:06:31.224Z,44.71
2018-05-08T08:07:31.269Z,46.56
2018-05-08T08:08:31.187Z,46.56
2018-05-08T08:09:31.162Z,46.66
2018-05-08T08:10:31.137Z,46.66
2018-05-08T08:11:31.120Z,44.73
2018-05-08T08:12:31.089Z,46.76
2018-05-08T08:13:31.077Z,47.44
2018-05-08T08:14:31.042Z,47.05
2018-05-08T08:15:31.020Z,47.44
2018-05-08T08:16:31.010Z,46.66
2018-05-08T08:17:30.975Z,46.30
2018-05-08T08:18:30.971Z,45.92
2018-05-08T08:19:30.935Z,45.92
2018-05-08T08:20:30.911Z,46.78
2018-05-08T08:21:30.883Z,46.20
2018-05-08T08:22:30.863Z,46.01
2018-05-08T08:23:30.840Z,45.53
2018-05-08T08:24:30.816Z,46.30
2018-05-08T08:25:30.802Z,44.18
2018-05-08T08:26:30.771Z,46.20
2018-05-08T08:27:30.755Z,46.78
2018-05-08T08:28:30.732Z,46.42
2018-05-08T08:29:30.703Z,46.81
2018-05-08T08:30:30.689Z,46.81
2018-05-08T08:31:30.664Z,46.97
2018-05-08T08:32:30.642Z,47.48
2018-05-08T08:33:30.622Z,47.00
2018-05-08T08:34:30.589Z,47.09
2018-05-08T08:35:30.577Z,44.97
2018-05-08T08:36:30.547Z,44.20
2018-05-08T08:37:30.528Z,45.26
2018-05-08T08:38:30.507Z,44.87
2018-05-08T08:39:30.481Z,44.20
2018-05-08T08:40:30.466Z,45.07
2018-05-08T08:41:30.439Z,45.45
2018-05-08T08:42:30.416Z,45.84
2018-05-08T08:43:30.391Z,44.97
2018-05-08T08:44:30.372Z,46.42
2018-05-08T08:45:30.353Z,46.03
2018-05-08T08:46:30.433Z,45.07
2018-05-08T08:47:30.310Z,44.97
2018-05-08T08:48:30.280Z,44.87
2018-05-08T08:49:30.252Z,45.00
2018-05-08T08:50:30.242Z,45.28
2018-05-08T08:51:30.214Z,45.86
2018-05-08T08:52:30.244Z,44.70
2018-05-08T08:53:30.173Z,45.38
2018-05-08T08:54:30.146Z,45.48
2018-05-08T08:55:30.128Z,44.80
2018-05-08T08:56:30.099Z,44.42
2018-05-08T08:57:30.078Z,45.28
2018-05-08T08:58:30.060Z,45.09
2018-05-08T08:59:30.038Z,44.51
2018-05-08T09:00:30.013Z,44.12
2018-05-08T09:01:29.992Z,43.64
2018-05-08T09:02:29.967Z,43.64
2018-05-08T09:03:29.948Z,42.39
2018-05-08T09:04:29.927Z,40.36
2018-05-08T09:05:29.900Z,39.49
2018-05-08T09:06:29.880Z,41.33
2018-05-08T09:07:29.857Z,42.58
2018-05-08T09:08:29.836Z,43.28
2018-05-08T09:09:29.817Z,44.24
2018-05-08T09:10:29.785Z,43.95
2018-05-08T09:11:29.774Z,44.15
2018-05-08T09:12:29.747Z,43.57
2018-05-08T09:13:29.725Z,42.41
2018-05-08T09:14:29.702Z,41.93
2018-05-08T09:15:29.685Z,40.19
2018-05-08T09:16:29.656Z,40.67
2018-05-08T09:17:29.646Z,40.86
2018-05-08T09:18:29.608Z,40.77
2018-05-08T09:19:29.587Z,42.12
2018-05-08T09:20:29.573Z,42.31
2018-05-08T09:21:29.542Z,40.96
2018-05-08T09:22:29.530Z,41.73
2018-05-08T09:23:29.505Z,41.93
2018-05-08T09:24:29.486Z,42.41
2018-05-08T09:25:29.460Z,41.15
2018-05-08T09:26:29.436Z,42.31
2018-05-08T09:27:29.476Z,41.66
2018-05-08T09:28:29.394Z,40.30
2018-05-08T09:29:29.369Z,39.72
2018-05-08T09:30:29.344Z,40.50
2018-05-08T09:31:29.332Z,40.78
2018-05-08T09:32:29.304Z,41.36
2018-05-08T09:33:29.286Z,40.69
2018-05-08T09:34:29.272Z,38.76
2018-05-08T09:35:29.237Z,41.36
2018-05-08T09:36:29.220Z,40.88
2018-05-08T09:37:29.198Z,39.94
2018-05-08T09:38:29.169Z,40.69
2018-05-08T09:39:29.152Z,42.25
2018-05-08T09:40:29.129Z,41.09
2018-05-08T09:41:29.110Z,40.23
2018-05-08T09:42:29.125Z,41.08
2018-05-08T09:43:29.062Z,41.46
2018-05-08T09:44:29.046Z,41.48
2018-05-08T09:45:29.015Z,41.19
2018-05-08T09:46:29.005Z,41.58
2018-05-08T09:47:28.973Z,36.74
2018-05-08T09:48:28.954Z,37.52
2018-05-08T09:49:28.932Z,37.81
2018-05-08T09:50:28.911Z,39.26
2018-05-08T09:51:28.891Z,37.81
2018-05-08T09:52:28.863Z,39.06
2018-05-08T09:53:28.847Z,38.87
2018-05-08T09:54:28.821Z,39.26
2018-05-08T09:55:28.795Z,38.10
2018-05-08T09:56:28.783Z,37.23
2018-05-08T09:57:28.756Z,37.81
2018-05-08T09:58:28.737Z,35.88
2018-05-08T09:59:28.715Z,38.41
2018-05-08T10:00:28.693Z,39.28
2018-05-08T10:01:28.666Z,38.41
2018-05-08T10:02:28.648Z,37.54
2018-05-08T10:03:28.626Z,35.99
2018-05-08T10:04:28.602Z,33.09
2018-05-08T10:05:28.583Z,33.95
2018-05-08T10:06:28.559Z,33.86
2018-05-08T10:07:28.538Z,34.07
2018-05-08T10:08:28.518Z,34.45
2018-05-08T10:09:28.496Z,34.45
2018-05-08T10:10:28.471Z,35.72
2018-05-08T10:11:28.450Z,35.33
2018-05-08T10:12:28.433Z,33.59
2018-05-08T10:13:28.403Z,34.17
2018-05-08T10:14:28.382Z,33.97
2018-05-08T10:15:28.365Z,34.65
2018-05-08T10:16:28.351Z,35.62
2018-05-08T10:17:28.324Z,35.81
2018-05-08T10:18:28.298Z,35.62
2018-05-08T10:19:28.277Z,34.45
2018-05-08T10:20:28.258Z,34.75
2018-05-08T10:21:28.234Z,33.10
2018-05-08T10:22:28.217Z,34.07
2018-05-08T10:23:28.192Z,33.59
2018-05-08T10:24:28.167Z,34.07
2018-05-08T10:25:28.148Z,32.82
2018-05-08T10:26:28.127Z,34.38
2018-05-08T10:27:28.103Z,35.04
2018-05-08T10:28:28.086Z,35.81
2018-05-08T10:29:28.057Z,34.19
2018-05-08T10:30:28.037Z,36.00
2018-05-08T10:31:28.023Z,36.60
2018-05-08T10:32:28.056Z,36.22
2018-05-08T10:33:27.980Z,35.81
2018-05-08T10:34:27.952Z,36.00
2018-05-08T10:35:27.934Z,36.99
2018-05-08T10:36:27.909Z,35.52
2018-05-08T10:37:27.885Z,36.51
2018-05-08T10:38:27.871Z,34.55
2018-05-08T10:39:27.844Z,33.31
2018-05-08T10:40:27.828Z,34.86
2018-05-08T10:41:27.807Z,34.09
2018-05-08T10:42:27.777Z,35.35
2018-05-08T10:43:27.757Z,35.54
2018-05-08T10:44:27.740Z,37.09
2018-05-08T10:45:27.712Z,37.09
2018-05-08T10:46:27.693Z,34.96
2018-05-08T10:47:27.681Z,35.93
2018-05-08T10:48:27.652Z,35.05
2018-05-08T10:49:27.628Z,35.83
2018-05-08T10:50:27.614Z,36.41
2018-05-08T10:51:27.586Z,34.28
2018-05-08T10:52:27.571Z,35.54
2018-05-08T10:53:27.544Z,33.60
2018-05-08T10:54:27.524Z,34.38
2018-05-08T10:55:27.503Z,34.30
2018-05-08T10:56:27.483Z,33.23
2018-05-08T10:57:27.459Z,32.36
2018-05-08T10:58:27.438Z,32.65
2018-05-08T10:59:27.422Z,33.23
2018-05-08T11:00:27.393Z,34.11
2018-05-08T11:01:27.374Z,33.81
2018-05-08T11:02:27.350Z,33.81
2018-05-08T11:03:27.336Z,34.78
2018-05-08T11:04:27.313Z,33.81
2018-05-08T11:05:27.286Z,34.69
2018-05-08T11:06:27.269Z,35.27
2018-05-08T11:07:27.248Z,33.81
2018-05-08T11:08:27.227Z,34.49
2018-05-08T11:09:27.207Z,31.78
2018-05-08T11:10:27.180Z,33.62
2018-05-08T11:11:27.164Z,32.94
2018-05-08T11:12:27.146Z,31.99
2018-05-08T11:13:27.115Z,32.67
2018-05-08T11:14:27.098Z,31.97
2018-05-08T11:15:27.072Z,33.72
2018-05-08T11:16:27.056Z,34.30
2018-05-08T11:17:27.036Z,33.33
2018-05-08T11:18:27.008Z,34.02
2018-05-08T11:19:26.985Z,34.01
2018-05-08T11:20:26.968Z,32.18
2018-05-08T11:21:26.943Z,30.05
2018-05-08T11:22:26.923Z,31.99
2018-05-08T11:23:26.903Z,32.84
2018-05-08T11:24:26.888Z,32.96
2018-05-08T11:25:26.862Z,32.57
2018-05-08T11:26:26.941Z,32.37
2018-05-08T11:27:26.820Z,31.41
2018-05-08T11:28:26.797Z,31.50
2018-05-08T11:29:26.777Z,32.28
2018-05-08T11:30:26.756Z,32.96
2018-05-08T11:31:26.730Z,33.34
2018-05-08T11:32:26.715Z,32.09
2018-05-08T11:33:26.698Z,33.07
2018-05-08T11:34:26.676Z,31.81
2018-05-08T11:35:26.652Z,30.07
2018-05-08T11:36:26.627Z,29.77
2018-05-08T11:37:26.620Z,30.26
2018-05-08T11:38:26.610Z,31.52
2018-05-08T11:39:26.621Z,32.10
2018-05-08T11:40:26.541Z,34.33
2018-05-08T11:41:26.526Z,33.94
2018-05-08T11:42:26.506Z,33.36
2018-05-08T11:43:26.477Z,32.97
2018-05-08T11:44:26.463Z,32.20
2018-05-08T11:45:26.439Z,31.52
2018-05-08T11:46:26.422Z,31.42
2018-05-08T11:47:26.394Z,32.97
2018-05-08T11:48:26.380Z,33.17
2018-05-08T11:49:26.364Z,32.68
2018-05-08T11:50:26.339Z,31.23
2018-05-08T11:51:26.308Z,32.97
2018-05-08T11:52:26.290Z,32.39
2018-05-08T11:53:26.278Z,32.49
2018-05-08T11:54:26.246Z,32.39
2018-05-08T11:55:26.230Z,32.20
2018-05-08T11:56:26.209Z,32.20
2018-05-08T11:57:26.188Z,31.32
2018-05-08T11:58:26.166Z,32.02
2018-05-08T11:59:26.144Z,30.57
2018-05-08T12:00:26.125Z,30.08
2018-05-08T12:01:26.101Z,30.08
2018-05-08T12:02:26.083Z,27.75
2018-05-08T12:03:26.057Z,28.53
2018-05-08T12:04:26.041Z,29.40
2018-05-08T12:05:26.023Z,28.72
2018-05-08T12:06:25.997Z,30.37
2018-05-08T12:07:25.975Z,29.90
2018-05-08T12:08:25.953Z,29.90
2018-05-08T12:09:25.939Z,29.71
2018-05-08T12:10:25.913Z,27.28
2018-05-08T12:11:25.899Z,25.14
2018-05-08T12:12:25.872Z,24.17
2018-05-08T12:13:25.852Z,26.70
2018-05-08T12:14:25.854Z,28.34
2018-05-08T12:15:25.808Z,29.80
2018-05-08T12:16:25.793Z,30.97
2018-05-08T12:17:25.773Z,31.26
2018-05-08T12:18:25.748Z,30.29
2018-05-08T12:19:25.740Z,29.51
2018-05-08T12:20:25.709Z,29.80
2018-05-08T12:21:25.680Z,30.77
2018-05-08T12:22:25.670Z,30.19
2018-05-08T12:23:25.641Z,30.38
2018-05-08T12:24:25.624Z,31.35
2018-05-08T12:25:25.605Z,30.19
2018-05-08T12:26:25.579Z,27.28
2018-05-08T12:27:25.558Z,26.79
2018-05-08T12:28:25.545Z,28.74
2018-05-08T12:29:25.520Z,30.19
2018-05-08T12:30:25.502Z,30.19
2018-05-08T12:31:25.482Z,28.93
2018-05-08T12:32:25.454Z,29.22
2018-05-08T12:33:25.442Z,29.02
2018-05-08T12:34:25.415Z,28.34
2018-05-08T12:35:25.395Z,29.71
2018-05-08T12:36:25.377Z,30.01
2018-05-08T12:37:25.358Z,28.94
2018-05-08T12:38:25.327Z,25.93
2018-05-08T12:39:25.316Z,26.90
2018-05-08T12:40:25.288Z,27.29
2018-05-08T12:41:25.264Z,28.55
2018-05-08T12:42:25.253Z,27.48
2018-05-08T12:43:25.236Z,24.87
2018-05-08T12:44:25.260Z,26.71
2018-05-08T12:45:25.191Z,27.58
2018-05-08T12:46:25.160Z,28.75
2018-05-08T12:47:25.141Z,28.85
2018-05-08T12:48:25.129Z,28.26
2018-05-08T12:49:25.099Z,28.26
2018-05-08T12:50:25.140Z,29.43
2018-05-08T12:51:25.061Z,27.19
2018-05-08T12:52:25.046Z,25.35